createdAt,value
2019-03-30T00:01:06.248Z,25.40
2019-03-30T00:03:37.408Z,25.83
2019-03-30T00:06:07.880Z,23.80
2019-03-30T00:08:38.369Z,22.27
2019-03-30T00:11:08.852Z,26.87
2019-03-30T00:13:39.322Z,25.13
2019-03-30T00:16:09.811Z,27.43
2019-03-30T00:18:41.472Z,29.63
2019-03-30T00:21:12.698Z,28.83
2019-03-30T00:23:44.303Z,22.93
2019-03-30T00:26:14.855Z,26.53
2019-03-30T00:28:45.592Z,30.93
2019-03-30T00:31:16.259Z,28.20
2019-03-30T00:33:48.161Z,23.77
2019-03-30T00:36:18.658Z,30.50
2019-03-30T00:38:49.130Z,31.40
2019-03-30T00:41:19.620Z,30.63
2019-03-30T00:43:50.082Z,31.17
2019-03-30T00:46:20.575Z,28.60
2019-03-30T00:48:51.065Z,28.20
2019-03-30T00:51:21.562Z,32.30
2019-03-30T00:53:52.021Z,26.20
2019-03-30T00:56:22.523Z,26.60
2019-03-30T00:58:53.998Z,32.20
2019-03-30T01:01:24.549Z,23.00
2019-03-30T01:03:55.031Z,28.83
2019-03-30T01:06:25.495Z,27.57
2019-03-30T01:08:55.980Z,25.73
2019-03-30T01:11:28.110Z,23.13
2019-03-30T01:13:58.611Z,26.40
2019-03-30T01:16:29.074Z,25.23
2019-03-30T01:18:59.568Z,25.60
2019-03-30T01:21:30.098Z,24.20
2019-03-30T01:24:01.568Z,27.53
2019-03-30T01:26:32.938Z,25.40
2019-03-30T01:29:03.422Z,26.20
2019-03-30T01:31:33.896Z,25.70
2019-03-30T01:34:05.797Z,29.03
2019-03-30T01:36:36.327Z,28.70
2019-03-30T01:39:08.366Z,25.77
2019-03-30T01:41:41.083Z,30.50
2019-03-30T01:44:12.168Z,25.50
2019-03-30T01:46:43.245Z,24.83
2019-03-30T01:49:13.718Z,25.53
2019-03-30T01:51:44.199Z,24.47
2019-03-30T01:54:14.668Z,25.27
2019-03-30T01:56:45.224Z,22.57
2019-03-30T01:59:15.684Z,27.90
2019-03-30T02:01:46.946Z,26.43
2019-03-30T02:04:18.430Z,26.03
2019-03-30T02:06:48.915Z,25.47
2019-03-30T02:09:20.533Z,27.53
2019-03-30T02:11:53.144Z,27.83
2019-03-30T02:14:25.152Z,25.53
2019-03-30T02:16:55.698Z,23.93
2019-03-30T02:19:26.155Z,22.10
2019-03-30T02:21:56.749Z,27.90
2019-03-30T02:24:27.212Z,24.23
2019-03-30T02:26:58.801Z,26.30
2019-03-30T02:29:30.014Z,19.93
2019-03-30T02:32:00.507Z,28.17
2019-03-30T02:34:30.962Z,25.10
2019-03-30T02:37:03.133Z,26.17
2019-03-30T02:39:33.613Z,26.37
2019-03-30T02:42:05.194Z,27.37
2019-03-30T02:44:35.655Z,27.40
2019-03-30T02:47:06.149Z,23.10
2019-03-30T02:49:36.606Z,23.70
2019-03-30T02:52:07.110Z,23.77
2019-03-30T02:54:37.568Z,26.27
2019-03-30T02:57:08.078Z,27.00
2019-03-30T02:59:40.096Z,21.00
2019-03-30T03:02:10.683Z,22.70
2019-03-30T03:04:41.131Z,22.17
2019-03-30T03:07:13.261Z,32.13
2019-03-30T03:09:43.886Z,23.13
2019-03-30T03:12:14.389Z,28.87
2019-03-30T03:14:44.872Z,25.10
2019-03-30T03:17:15.429Z,23.43
2019-03-30T03:19:45.898Z,23.53
2019-03-30T03:22:16.485Z,19.13
2019-03-30T03:24:46.950Z,19.97
2019-03-30T03:27:17.435Z,22.13
2019-03-30T03:29:47.942Z,20.73
2019-03-30T03:32:18.412Z,24.27
2019-03-30T03:34:49.549Z,21.57
2019-03-30T03:37:20.035Z,22.90
2019-03-30T03:39:50.497Z,23.57
2019-03-30T03:42:21.157Z,30.53
2019-03-30T03:44:53.156Z,25.03
2019-03-30T03:47:23.675Z,23.57
2019-03-30T03:49:55.642Z,25.67
2019-03-30T03:52:26.277Z,19.43
2019-03-30T03:54:56.915Z,21.13
2019-03-30T03:57:29.624Z,26.00
2019-03-30T04:00:02.198Z,19.40
2019-03-30T04:02:36.525Z,20.00
2019-03-30T04:05:09.023Z,22.20
2019-03-30T04:07:41.757Z,23.90
2019-03-30T04:10:12.367Z,21.60
2019-03-30T04:12:47.540Z,21.47
2019-03-30T04:15:27.614Z,20.47
2019-03-30T04:17:59.971Z,24.67
2019-03-30T04:20:30.509Z,21.03
2019-03-30T04:23:03.292Z,20.80
2019-03-30T04:25:33.845Z,18.67
2019-03-30T04:28:06.411Z,21.80
2019-03-30T04:30:38.428Z,20.00
2019-03-30T04:33:08.885Z,23.50
2019-03-30T04:35:40.914Z,24.13
2019-03-30T04:38:14.405Z,22.50
2019-03-30T04:40:46.043Z,30.13
2019-03-30T04:43:17.643Z,22.70
2019-03-30T04:45:50.065Z,28.00
2019-03-30T04:48:22.365Z,22.37
2019-03-30T04:50:52.847Z,26.07
2019-03-30T04:53:23.344Z,22.90
2019-03-30T04:55:53.810Z,26.83
2019-03-30T04:58:24.308Z,23.93
2019-03-30T05:00:56.301Z,19.17
2019-03-30T05:03:28.102Z,26.33
2019-03-30T05:06:01.346Z,22.80
2019-03-30T05:08:33.046Z,23.23
2019-03-30T05:11:05.108Z,22.80
2019-03-30T05:13:35.574Z,20.10
2019-03-30T05:16:06.053Z,20.80
2019-03-30T05:18:36.516Z,21.33
2019-03-30T05:21:08.542Z,23.77
2019-03-30T05:23:40.273Z,20.87
2019-03-30T05:26:10.742Z,22.20
2019-03-30T05:28:41.238Z,19.30
2019-03-30T05:31:11.768Z,20.80
2019-03-30T05:33:42.283Z,17.00
2019-03-30T05:36:12.749Z,23.97
2019-03-30T05:38:43.251Z,20.57
2019-03-30T05:41:22.776Z,17.50
2019-03-30T05:43:53.300Z,19.17
2019-03-30T05:46:23.793Z,18.60
2019-03-30T05:48:54.262Z,18.17
2019-03-30T05:51:24.771Z,18.57
2019-03-30T05:53:55.229Z,18.20
2019-03-30T05:56:25.714Z,15.17
2019-03-30T05:58:56.238Z,19.10
2019-03-30T06:01:26.972Z,19.10
2019-03-30T06:03:57.417Z,19.73
2019-03-30T06:06:27.908Z,19.10
2019-03-30T06:08:59.036Z,19.50
2019-03-30T06:11:29.528Z,20.30
2019-03-30T06:14:00.024Z,20.40
2019-03-30T06:16:30.504Z,18.40
2019-03-30T06:19:00.998Z,19.10
2019-03-30T06:21:31.471Z,17.00
2019-03-30T06:24:01.943Z,21.07
2019-03-30T06:26:32.410Z,18.83
2019-03-30T06:29:02.909Z,19.40
2019-03-30T06:31:33.371Z,23.60
2019-03-30T06:34:03.936Z,17.27
2019-03-30T06:36:34.382Z,16.67
2019-03-30T06:39:06.627Z,15.40
2019-03-30T06:41:37.085Z,17.83
2019-03-30T06:44:07.587Z,15.47
2019-03-30T06:46:39.681Z,16.37
2019-03-30T06:49:10.342Z,19.07
2019-03-30T06:51:40.838Z,15.50
2019-03-30T06:54:14.637Z,21.07
2019-03-30T06:56:44.558Z,14.67
2019-03-30T06:59:16.776Z,18.83
2019-03-30T07:01:47.407Z,37.97
2019-03-30T07:04:18.133Z,23.67
2019-03-30T07:06:48.965Z,18.33
2019-03-30T07:09:22.511Z,14.90
2019-03-30T07:11:56.085Z,18.07
2019-03-30T07:14:30.548Z,15.80
2019-03-30T07:17:04.528Z,17.63
2019-03-30T07:19:38.202Z,14.40
2019-03-30T07:22:09.445Z,17.50
2019-03-30T07:24:40.012Z,17.67
2019-03-30T07:27:10.489Z,21.63
2019-03-30T07:29:40.986Z,20.13
2019-03-30T07:32:11.449Z,15.60
2019-03-30T07:34:42.063Z,16.40
2019-03-30T07:37:12.511Z,14.80
2019-03-30T07:39:43.023Z,14.13
2019-03-30T07:42:13.485Z,14.87
2019-03-30T07:44:43.986Z,19.10
2019-03-30T07:47:14.474Z,16.30
2019-03-30T07:49:45.495Z,16.70
2019-03-30T07:52:15.986Z,13.57
2019-03-30T07:54:47.117Z,16.43
2019-03-30T07:57:17.681Z,13.00
2019-03-30T07:59:48.200Z,11.80
2019-03-30T08:02:18.728Z,13.63
2019-03-30T08:04:49.236Z,11.80
2019-03-30T08:07:19.683Z,11.90
2019-03-30T08:09:50.711Z,10.23
2019-03-30T08:12:21.196Z,12.30
2019-03-30T08:14:51.731Z,10.80
2019-03-30T08:17:22.223Z,15.27
2019-03-30T08:19:52.697Z,12.10
2019-03-30T08:22:23.202Z,10.43
2019-03-30T08:24:54.405Z,13.17
2019-03-30T08:27:24.905Z,12.53
2019-03-30T08:29:55.369Z,13.90
2019-03-30T08:32:25.873Z,11.27
2019-03-30T08:34:56.333Z,12.43
2019-03-30T08:37:27.387Z,12.43
2019-03-30T08:39:57.848Z,11.00
2019-03-30T08:42:31.438Z,12.03
2019-03-30T08:45:01.910Z,12.70
2019-03-30T08:47:32.404Z,11.60
2019-03-30T08:50:02.906Z,9.80
2019-03-30T08:52:34.592Z,11.63
2019-03-30T08:55:09.046Z,12.83
2019-03-30T08:57:40.581Z,9.93
2019-03-30T09:00:12.296Z,12.20
2019-03-30T09:02:42.828Z,13.13
2019-03-30T09:05:13.574Z,13.30
2019-03-30T09:07:44.085Z,14.87
2019-03-30T09:10:14.659Z,15.07
2019-03-30T09:12:46.807Z,10.63
2019-03-30T09:15:17.950Z,13.17
2019-03-30T09:17:50.008Z,13.57
2019-03-30T09:20:21.742Z,12.67
2019-03-30T09:22:52.257Z,17.10
2019-03-30T09:25:22.818Z,13.87
2019-03-30T09:27:53.875Z,12.73
2019-03-30T09:30:24.326Z,12.27
2019-03-30T09:32:54.836Z,12.97
2019-03-30T09:35:25.376Z,13.80
2019-03-30T09:37:55.885Z,14.60
2019-03-30T09:40:26.432Z,13.97
2019-03-30T09:42:56.909Z,12.00
2019-03-30T09:45:27.406Z,15.13
2019-03-30T09:48:00.752Z,13.80
2019-03-30T09:50:31.229Z,13.30
2019-03-30T09:53:01.810Z,14.10
2019-03-30T09:55:32.276Z,12.90
2019-03-30T09:58:02.779Z,15.03
2019-03-30T10:00:35.111Z,15.20
2019-03-30T10:03:06.272Z,17.13
2019-03-30T10:05:38.586Z,13.47
2019-03-30T10:08:09.626Z,15.00
2019-03-30T10:10:40.162Z,15.67
2019-03-30T10:13:10.658Z,14.37
2019-03-30T10:15:41.138Z,13.27
2019-03-30T10:18:13.214Z,12.73
2019-03-30T10:20:43.718Z,14.17
2019-03-30T10:23:14.199Z,12.23
2019-03-30T10:25:44.739Z,12.80
2019-03-30T10:28:15.264Z,13.43
2019-03-30T10:30:47.407Z,13.73
2019-03-30T10:33:17.921Z,16.50
2019-03-30T10:35:48.415Z,13.97
2019-03-30T10:38:18.878Z,13.27
2019-03-30T10:40:50.924Z,13.03
2019-03-30T10:43:21.394Z,15.30
2019-03-30T10:45:51.927Z,14.53
2019-03-30T10:48:22.399Z,13.87
2019-03-30T10:50:52.894Z,14.70
2019-03-30T10:53:25.069Z,15.23
2019-03-30T10:55:55.564Z,13.47
2019-03-30T10:58:27.748Z,11.90
2019-03-30T11:00:58.804Z,14.60
2019-03-30T11:03:29.289Z,14.10
2019-03-30T11:05:59.789Z,14.27
2019-03-30T11:08:31.527Z,13.23
2019-03-30T11:11:04.786Z,13.00
2019-03-30T11:13:35.260Z,11.83
2019-03-30T11:16:08.460Z,12.00
2019-03-30T11:18:41.082Z,12.10
2019-03-30T11:21:14.064Z,10.90
2019-03-30T11:23:46.990Z,11.67
2019-03-30T11:26:19.050Z,11.47
2019-03-30T11:28:49.523Z,10.87
2019-03-30T11:31:21.909Z,11.10
2019-03-30T11:33:52.369Z,8.87
2019-03-30T11:36:22.858Z,8.33
2019-03-30T11:38:54.197Z,7.77
2019-03-30T11:41:25.055Z,8.73
2019-03-30T11:43:55.731Z,8.30
2019-03-30T11:46:27.605Z,7.50
2019-03-30T11:48:58.082Z,7.33
2019-03-30T11:51:29.203Z,8.43
2019-03-30T11:53:59.714Z,10.77
2019-03-30T11:56:31.960Z,9.13
2019-03-30T11:59:02.451Z,8.10
2019-03-30T12:01:33.584Z,8.80
2019-03-30T12:04:04.066Z,7.93
2019-03-30T12:06:35.861Z,7.97
2019-03-30T12:09:08.835Z,7.23
2019-03-30T12:11:44.655Z,7.30
2019-03-30T12:14:16.184Z,7.60
2019-03-30T12:16:46.641Z,7.83
2019-03-30T12:19:17.140Z,8.33
2019-03-30T12:21:48.267Z,7.10
2019-03-30T12:24:18.836Z,7.63
2019-03-30T12:26:49.940Z,7.00
2019-03-30T12:29:21.104Z,6.83
2019-03-30T12:31:51.593Z,6.97
2019-03-30T12:34:24.352Z,7.23
2019-03-30T12:36:55.950Z,6.47
2019-03-30T12:39:27.257Z,6.77
2019-03-30T12:42:00.442Z,7.17
2019-03-30T12:44:31.641Z,6.30
2019-03-30T12:47:02.119Z,6.87
2019-03-30T12:49:33.261Z,5.83
2019-03-30T12:52:03.827Z,6.17
2019-03-30T12:54:35.005Z,5.73
2019-03-30T12:57:05.471Z,5.93
2019-03-30T12:59:35.967Z,5.30
2019-03-30T13:02:07.881Z,5.30
2019-03-30T13:04:38.369Z,5.47
2019-03-30T13:07:08.850Z,5.40
2019-03-30T13:09:39.329Z,6.10
2019-03-30T13:12:11.330Z,5.77
2019-03-30T13:14:41.985Z,5.60
2019-03-30T13:17:13.342Z,6.47
2019-03-30T13:19:43.801Z,5.50
2019-03-30T13:22:14.287Z,5.37
2019-03-30T13:24:44.756Z,6.10
2019-03-30T13:27:15.237Z,6.07
2019-03-30T13:29:47.239Z,6.83
2019-03-30T13:32:17.738Z,6.40
2019-03-30T13:34:48.206Z,6.67
2019-03-30T13:37:20.014Z,5.67
2019-03-30T13:39:50.469Z,6.30
2019-03-30T13:42:20.961Z,6.53
2019-03-30T13:44:52.944Z,7.43
2019-03-30T13:47:23.458Z,7.00
2019-03-30T13:49:54.161Z,6.70
2019-03-30T13:52:24.661Z,7.80
2019-03-30T13:54:55.977Z,6.93
2019-03-30T13:57:28.092Z,7.63
2019-03-30T13:59:59.260Z,7.70
2019-03-30T14:02:34.662Z,7.00
2019-03-30T14:05:06.722Z,10.03
2019-03-30T14:07:37.227Z,8.33
2019-03-30T14:10:09.756Z,7.07
2019-03-30T14:12:40.253Z,7.63
2019-03-30T14:15:10.923Z,8.10
2019-03-30T14:17:41.421Z,7.40
2019-03-30T14:20:12.024Z,6.93
2019-03-30T14:22:42.530Z,8.40
2019-03-30T14:25:13.724Z,8.43
2019-03-30T14:27:44.215Z,6.60
2019-03-30T14:30:14.915Z,7.33
2019-03-30T14:32:46.200Z,8.20
2019-03-30T14:35:18.288Z,7.20
2019-03-30T14:37:48.815Z,9.30
2019-03-30T14:40:19.299Z,8.47
2019-03-30T14:42:49.784Z,8.20
2019-03-30T14:45:20.278Z,8.63
2019-03-30T14:47:52.381Z,7.63
2019-03-30T14:50:23.432Z,8.87
2019-03-30T14:52:53.897Z,15.93
2019-03-30T14:55:24.384Z,7.57
2019-03-30T14:57:54.901Z,7.87
2019-03-30T15:00:26.931Z,8.30
2019-03-30T15:02:57.596Z,7.90
2019-03-30T15:05:28.203Z,8.63
2019-03-30T15:07:58.684Z,8.10
2019-03-30T15:10:30.082Z,8.23
2019-03-30T15:13:00.584Z,10.27
2019-03-30T15:15:32.620Z,9.27
2019-03-30T15:18:03.078Z,8.70
2019-03-30T15:20:33.581Z,10.07
2019-03-30T15:23:05.677Z,10.33
2019-03-30T15:25:36.167Z,9.27
2019-03-30T15:28:06.713Z,9.20
2019-03-30T15:30:37.868Z,9.17
2019-03-30T15:33:08.365Z,9.03
2019-03-30T15:35:38.835Z,11.03
2019-03-30T15:38:09.409Z,12.13
2019-03-30T15:40:39.917Z,19.13
2019-03-30T15:43:10.392Z,15.63
2019-03-30T15:45:40.891Z,9.80
2019-03-30T15:48:11.350Z,9.60
2019-03-30T15:50:42.957Z,9.97
2019-03-30T15:53:13.453Z,9.40
2019-03-30T15:55:44.577Z,10.40
2019-03-30T15:58:16.416Z,9.33
2019-03-30T16:00:46.930Z,10.00
2019-03-30T16:03:17.438Z,9.33
2019-03-30T16:05:48.018Z,9.77
2019-03-30T16:08:18.519Z,10.07
2019-03-30T16:10:52.273Z,10.63
2019-03-30T16:13:22.815Z,11.00
2019-03-30T16:15:53.318Z,10.60
2019-03-30T16:18:23.773Z,11.17
2019-03-30T16:20:54.304Z,10.83
2019-03-30T16:23:24.905Z,11.17
2019-03-30T16:25:55.467Z,12.27
2019-03-30T16:28:25.941Z,11.63
2019-03-30T16:30:58.063Z,37.33
2019-03-30T16:33:28.592Z,46.23
2019-03-30T16:36:02.564Z,13.80
2019-03-30T16:38:31.315Z,13.33
2019-03-30T16:41:03.350Z,12.07
2019-03-30T16:43:33.825Z,18.43
2019-03-30T16:46:07.467Z,14.57
2019-03-30T16:48:37.958Z,13.70
2019-03-30T16:51:09.997Z,17.10
2019-03-30T16:53:40.499Z,19.57
2019-03-30T16:56:12.722Z,18.23
2019-03-30T16:58:46.763Z,19.23
2019-03-30T17:01:17.245Z,23.20
2019-03-30T17:03:47.766Z,16.67
2019-03-30T17:06:18.301Z,14.10
2019-03-30T17:08:48.803Z,23.70
2019-03-30T17:11:20.925Z,18.40
2019-03-30T17:13:52.680Z,14.57
2019-03-30T17:16:23.171Z,20.10
2019-03-30T17:18:53.673Z,12.93
2019-03-30T17:21:24.183Z,17.73
2019-03-30T17:23:54.725Z,14.67
2019-03-30T17:26:25.253Z,16.20
2019-03-30T17:28:55.770Z,18.33
2019-03-30T17:31:27.092Z,17.53
2019-03-30T17:33:57.686Z,17.37
2019-03-30T17:36:29.476Z,19.40
2019-03-30T17:39:02.829Z,45.70
2019-03-30T17:41:33.364Z,54.33
2019-03-30T17:44:04.370Z,41.90
2019-03-30T17:46:34.961Z,31.40
2019-03-30T17:49:05.502Z,26.07
2019-03-30T17:51:36.009Z,26.37
2019-03-30T17:54:06.585Z,29.93
2019-03-30T17:56:37.067Z,26.53
2019-03-30T17:59:07.594Z,25.43
2019-03-30T18:01:38.046Z,31.43
2019-03-30T18:04:08.586Z,27.63
2019-03-30T18:06:39.117Z,30.93
2019-03-30T18:09:09.688Z,27.57
2019-03-30T18:11:40.243Z,27.00
2019-03-30T18:14:10.772Z,27.10
2019-03-30T18:16:41.227Z,24.13
2019-03-30T18:19:11.776Z,23.77
2019-03-30T18:21:42.290Z,26.10
2019-03-30T18:24:13.665Z,27.20
2019-03-30T18:26:44.167Z,26.27
2019-03-30T18:29:14.643Z,23.87
2019-03-30T18:31:45.746Z,22.83
2019-03-30T18:34:16.609Z,25.03
2019-03-30T18:36:50.098Z,23.50
2019-03-30T18:39:21.433Z,25.87
2019-03-30T18:41:51.978Z,22.03
2019-03-30T18:44:22.631Z,23.30
2019-03-30T18:46:54.816Z,17.93
2019-03-30T18:49:25.491Z,17.50
2019-03-30T18:51:57.596Z,15.10
2019-03-30T18:54:28.806Z,17.70
2019-03-30T18:56:59.310Z,14.17
2019-03-30T18:59:29.826Z,14.83
2019-03-30T19:02:00.302Z,15.20
2019-03-30T19:04:31.513Z,17.57
2019-03-30T19:07:01.997Z,16.90
2019-03-30T19:09:34.037Z,21.33
2019-03-30T19:12:05.085Z,18.00
2019-03-30T19:14:35.666Z,19.33
2019-03-30T19:17:06.239Z,20.87
2019-03-30T19:19:36.713Z,22.87
2019-03-30T19:22:07.221Z,20.13
2019-03-30T19:24:37.683Z,23.30
2019-03-30T19:27:08.201Z,20.50
2019-03-30T19:29:38.669Z,16.90
2019-03-30T19:32:10.428Z,19.10
2019-03-30T19:34:43.772Z,18.73
2019-03-30T19:37:14.356Z,21.13
2019-03-30T19:39:45.116Z,16.67
2019-03-30T19:42:16.040Z,20.13
2019-03-30T19:44:46.583Z,20.73
2019-03-30T19:47:17.057Z,21.43
2019-03-30T19:49:48.183Z,22.40
2019-03-30T19:52:18.640Z,20.20
2019-03-30T19:54:50.691Z,18.23
2019-03-30T19:57:21.526Z,20.73
2019-03-30T19:59:53.571Z,24.73
2019-03-30T20:02:24.159Z,18.47
2019-03-30T20:04:54.653Z,21.90
2019-03-30T20:07:25.189Z,17.77
2019-03-30T20:09:55.903Z,18.30
2019-03-30T20:12:26.441Z,19.03
2019-03-30T20:14:56.970Z,23.87
2019-03-30T20:17:27.473Z,22.97
2019-03-30T20:19:57.988Z,20.07
2019-03-30T20:22:29.155Z,25.00
2019-03-30T20:24:59.725Z,26.40
2019-03-30T20:27:30.228Z,31.10
2019-03-30T20:30:00.756Z,30.80
2019-03-30T20:32:31.230Z,29.97
2019-03-30T20:35:01.742Z,28.60
2019-03-30T20:37:34.019Z,32.73
2019-03-30T20:40:07.448Z,34.23
2019-03-30T20:42:39.662Z,34.87
2019-03-30T20:45:12.079Z,35.37
2019-03-30T20:47:42.551Z,34.60
2019-03-30T20:50:14.100Z,41.60
2019-03-30T20:52:44.620Z,35.50
2019-03-30T20:55:15.156Z,31.70
2019-03-30T20:57:46.431Z,29.70
2019-03-30T21:00:17.739Z,33.10
2019-03-30T21:02:48.262Z,28.10
2019-03-30T21:05:18.735Z,27.10
2019-03-30T21:07:49.241Z,24.20
2019-03-30T21:10:19.843Z,25.63
2019-03-30T21:12:50.363Z,23.90
2019-03-30T21:15:21.255Z,23.07
2019-03-30T21:17:51.760Z,21.00
2019-03-30T21:20:22.236Z,24.23
2019-03-30T21:22:52.775Z,24.80
2019-03-30T21:25:23.252Z,21.03
2019-03-30T21:27:53.811Z,23.33
2019-03-30T21:30:24.295Z,20.03
2019-03-30T21:32:54.828Z,20.30
2019-03-30T21:35:25.299Z,20.83
2019-03-30T21:37:58.543Z,21.20
2019-03-30T21:40:28.064Z,19.93
2019-03-30T21:42:58.568Z,21.43
2019-03-30T21:45:29.045Z,18.20
2019-03-30T21:47:59.567Z,18.60
2019-03-30T21:50:30.025Z,19.90
2019-03-30T21:53:00.536Z,20.80
2019-03-30T21:55:31.097Z,20.90
2019-03-30T21:58:01.561Z,20.77
2019-03-30T22:00:38.242Z,19.90
2019-03-30T22:03:08.903Z,18.93
2019-03-30T22:05:42.348Z,19.77
2019-03-30T22:08:12.813Z,21.47
2019-03-30T22:10:43.303Z,19.10
2019-03-30T22:13:13.771Z,22.17
2019-03-30T22:15:44.270Z,21.67
2019-03-30T22:18:14.732Z,19.60
2019-03-30T22:20:45.220Z,17.37
2019-03-30T22:23:15.682Z,20.70
2019-03-30T22:25:46.233Z,21.27
2019-03-30T22:28:16.709Z,24.20
2019-03-30T22:30:47.189Z,17.30
2019-03-30T22:33:17.644Z,20.30
2019-03-30T22:35:48.144Z,21.00
2019-03-30T22:38:18.610Z,19.37
2019-03-30T22:40:49.152Z,19.30
2019-03-30T22:43:19.617Z,21.90
2019-03-30T22:45:51.100Z,18.00
2019-03-30T22:48:21.565Z,18.27
2019-03-30T22:50:52.076Z,17.70
2019-03-30T22:53:22.573Z,17.90
2019-03-30T22:55:53.089Z,21.27
2019-03-30T22:58:23.529Z,21.63
2019-03-30T23:01:12.794Z,18.07
2019-03-30T23:03:43.348Z,21.50
2019-03-30T23:06:13.810Z,18.67
2019-03-30T23:08:44.299Z,20.90
2019-03-30T23:11:14.805Z,22.43
2019-03-30T23:13:45.289Z,19.60
2019-03-30T23:16:15.765Z,19.60
2019-03-30T23:18:46.307Z,20.47
2019-03-30T23:21:16.791Z,21.50
2019-03-30T23:23:47.252Z,18.40
2019-03-30T23:26:17.820Z,17.50
2019-03-30T23:28:48.272Z,20.53
2019-03-30T23:31:18.753Z,17.73
2019-03-30T23:33:49.216Z,16.97
2019-03-30T23:36:19.701Z,21.10
2019-03-30T23:38:50.166Z,20.30
2019-03-30T23:41:20.723Z,16.03
2019-03-30T23:43:51.208Z,20.67
2019-03-30T23:46:21.708Z,22.10
2019-03-30T23:48:52.165Z,20.27
2019-03-30T23:51:22.658Z,17.73
2019-03-30T23:53:53.134Z,19.40
2019-03-30T23:56:25.218Z,16.50
2019-03-30T23:58:55.844Z,19.17
